• Join FlightAware (Why Join?)
  • Login
  • US Flag GB Flag 
15:02 EDT


 

Airport Tracker/Info


-or-


 

Live Flight TrackerFlight Track Log ✈ EJM90 ✈ 28-Aug-2013 ✈ KFLL - KORL

Flight Track Log - Related Links

Times and Time Zones

All times are in EDT time to prevent confusion due to time zone crossing. See the EJM90 flight status page for this flight to view local times or setup timezone preferences in your user account.

Time Position Orientation Groundspeed Altitude Reporting Facility
EDT Latitude Longitude Course Direction KTS MPH feet Rate Location/Type
12:13 26.0747 -80.1436 84° East 174 200 800  Level Miami Center
12:14 26.0803 -80.0858 84° East 206 237 3,700 3,000 Climbing Miami Center
12:15 26.1475 -80.0647 16° North 250 288 7,400 2,280 Climbing Miami Center
12:16 26.2047 -80.1239 317° Northwest 238 274 9,000 1,800 Climbing Miami Center
12:17 26.2508 -80.2086 301° West 265 305 11,000 1,080 Climbing Miami Center
12:18 26.3036 -80.2797 310° West 292 336 11,200 1,140 Climbing Miami Center
12:19 26.3819 -80.3167 337° Northwest 320 368 13,300 2,460 Climbing Miami Center
12:20 26.4808 -80.3753 332° Northwest 350 403 16,200 1,800 Climbing Miami Center
12:21 26.5672 -80.4358 328° Northwest 393 452 17,000 360 Climbing Miami Center
12:22 26.6897 -80.4628 349° North 398 458 17,000  Level Miami Center
12:23 26.7953 -80.5033 341° North 404 465 17,000  Level Miami Center
12:24 26.8858 -80.5481 336° Northwest 397 457 17,000  Level Miami Center
12:25 26.9889 -80.6003 336° Northwest 397 457 17,000  Level Miami Center
12:26 27.1003 -80.6600 334° Northwest 402 463 17,000  Level Miami Center
12:27 27.1989 -80.7122 335° Northwest 392 451 17,000  Level Miami Center
12:28 27.2978 -80.7669 334° Northwest 392 451 17,000  Level Miami Center
12:29 27.3986 -80.8217 334° Northwest 397 457 17,000 -360 Level Miami Center
12:30 27.4994 -80.8767 334° Northwest 397 457 16,300 -780 Descending Miami Center
12:31 27.5900 -80.9219 336° Northwest 397 457 15,500 -1,560 Descending Miami Center
12:32 27.7050 -80.9847 334° Northwest 409 471 13,200 -2,100 Descending Miami Center
12:33 27.7933 -81.0325 334° Northwest 373 429 11,300 -1,560 Descending Miami Center
12:36 27.9833 -81.1333 335° Northwest 297 342 8,000 -1,200 Descending Orlando TRACON
12:37 28.0333 -81.2000 310° West 294 338 7,400 -1,560 Descending Orlando TRACON
12:38 28.0833 -81.2833 304° West 279 321 4,900 -1,740 Descending Orlando TRACON
12:39 28.1000 -81.3667 283° West 277 319 4,000 -480 Descending Orlando TRACON
12:40 28.1167 -81.4500 283° West 273 314 4,000  Level Orlando TRACON
12:41 28.1667 -81.5167 310° West 275 316 4,000 -540 Level Orlando TRACON
12:42 28.2167 -81.5500 330° Northwest 244 281 3,000 -540 Descending Orlando TRACON
12:43 28.2833 -81.5500 360° North 243 280 3,000  Level Orlando TRACON
12:44 28.3500 -81.5333 12° North 240 276 3,000  Level Orlando TRACON
12:45 28.4000 -81.5000 30° Northeast 218 251 3,000 -540 Level Orlando TRACON
12:46 28.4500 -81.4667 30° Northeast 180 207 2,000 -840 Descending Orlando TRACON
12:47 28.4833 -81.4333 41° Northeast 175 201 1,400 -480 Descending Orlando TRACON
12:48 28.5167 -81.4000 41° Northeast 130 150 1,100 -360 Descending Orlando TRACON
12:49 28.5333 -81.3667 60° Northeast 117 135 700 -420 Descending Orlando TRACON